sensor_id;sensor_type;location;lat;lon;timestamp;pressure;altitude;pressure_sealevel;temperature;humidity
23131;BME280;11734;51.046;13.778;2022-10-31T00:01:32;70228.84;;;11.76;100.00
23131;BME280;11734;51.046;13.778;2022-10-31T00:04:00;70224.44;;;11.75;100.00
23131;BME280;11734;51.046;13.778;2022-10-31T00:06:27;70230.03;;;11.73;100.00
23131;BME280;11734;51.046;13.778;2022-10-31T00:08:57;70263.25;;;11.72;100.00
23131;BME280;11734;51.046;13.778;2022-10-31T00:11:25;70195.94;;;11.66;100.00
23131;BME280;11734;51.046;13.778;2022-10-31T00:13:53;70221.84;;;11.61;100.00
23131;BME280;11734;51.046;13.778;2022-10-31T00:16:23;70184.22;;;11.61;100.00
23131;BME280;11734;51.046;13.778;2022-10-31T00:18:56;70170.13;;;11.58;100.00
23131;BME280;11734;51.046;13.778;2022-10-31T00:21:24;70171.03;;;11.56;100.00
23131;BME280;11734;51.046;13.778;2022-10-31T00:23:51;70205.59;;;11.29;100.00
23131;BME280;11734;51.046;13.778;2022-10-31T00:26:19;70197.19;;;11.54;100.00
23131;BME280;11734;51.046;13.778;2022-10-31T00:28:47;70191.94;;;11.49;100.00
23131;BME280;11734;51.046;13.778;2022-10-31T00:31:14;70206.09;;;11.43;100.00
23131;BME280;11734;51.046;13.778;2022-10-31T00:33:42;70182.59;;;11.41;100.00
23131;BME280;11734;51.046;13.778;2022-10-31T00:36:16;70172.91;;;11.40;100.00
23131;BME280;11734;51.046;13.778;2022-10-31T00:38:45;70193.78;;;11.37;100.00
23131;BME280;11734;51.046;13.778;2022-10-31T00:41:15;70166.72;;;11.41;100.00
23131;BME280;11734;51.046;13.778;2022-10-31T00:43:43;70160.91;;;11.31;100.00
23131;BME280;11734;51.046;13.778;2022-10-31T00:46:12;70184.97;;;11.34;100.00
23131;BME280;11734;51.046;13.778;2022-10-31T00:48:41;70152.38;;;11.31;100.00
23131;BME280;11734;51.046;13.778;2022-10-31T00:51:09;70132.75;;;11.25;100.00
23131;BME280;11734;51.046;13.778;2022-10-31T00:53:36;70173.88;;;11.24;100.00
23131;BME280;11734;51.046;13.778;2022-10-31T00:56:04;70157.72;;;11.22;100.00
23131;BME280;11734;51.046;13.778;2022-10-31T00:58:32;70172.44;;;11.21;100.00
23131;BME280;11734;51.046;13.778;2022-10-31T01:00:59;70146.28;;;11.19;100.00
23131;BME280;11734;51.046;13.778;2022-10-31T01:03:30;70161.00;;;11.18;100.00
23131;BME280;11734;51.046;13.778;2022-10-31T01:06:03;70137.50;;;11.16;100.00
23131;BME280;11734;51.046;13.778;2022-10-31T01:08:33;70163.34;;;11.15;100.00
23131;BME280;11734;51.046;13.778;2022-10-31T01:11:13;70118.72;;;11.13;100.00
23131;BME280;11734;51.046;13.778;2022-10-31T01:13:41;70146.31;;;11.14;100.00
23131;BME280;11734;51.046;13.778;2022-10-31T01:16:12;70123.44;;;11.13;100.00
23131;BME280;11734;51.046;13.778;2022-10-31T01:18:40;70180.41;;;11.12;100.00
23131;BME280;11734;51.046;13.778;2022-10-31T01:21:11;70138.44;;;11.10;100.00
23131;BME280;11734;51.046;13.778;2022-10-31T01:23:40;70154.59;;;11.08;100.00
23131;BME280;11734;51.046;13.778;2022-10-31T01:28:54;70122.31;;;11.03;100.00
23131;BME280;11734;51.046;13.778;2022-10-31T01:31:27;70152.28;;;11.01;100.00
23131;BME280;11734;51.046;13.778;2022-10-31T01:33:55;70155.81;;;11.00;100.00
23131;BME280;11734;51.046;13.778;2022-10-31T01:36:28;70152.31;;;10.97;100.00
23131;BME280;11734;51.046;13.778;2022-10-31T01:38:58;70122.66;;;10.96;100.00
23131;BME280;11734;51.046;13.778;2022-10-31T01:41:32;70144.97;;;10.93;100.00
23131;BME280;11734;51.046;13.778;2022-10-31T01:44:03;70121.50;;;10.91;100.00
23131;BME280;11734;51.046;13.778;2022-10-31T01:46:38;70103.59;;;10.91;100.00
23131;BME280;11734;51.046;13.778;2022-10-31T01:54:59;70128.31;;;10.80;100.00
23131;BME280;11734;51.046;13.778;2022-10-31T01:57:28;70104.22;;;10.82;100.00
23131;BME280;11734;51.046;13.778;2022-10-31T02:00:03;70112.16;;;10.82;100.00
23131;BME280;11734;51.046;13.778;2022-10-31T02:02:52;70101.56;;;10.82;100.00
23131;BME280;11734;51.046;13.778;2022-10-31T02:05:23;70119.50;;;10.82;100.00
23131;BME280;11734;51.046;13.778;2022-10-31T02:08:14;70084.00;;;10.76;100.00
23131;BME280;11734;51.046;13.778;2022-10-31T02:10:44;70103.69;;;10.73;100.00
23131;BME280;11734;51.046;13.778;2022-10-31T02:13:12;70064.38;;;10.71;100.00
23131;BME280;11734;51.046;13.778;2022-10-31T02:15:49;70099.88;;;10.72;100.00
23131;BME280;11734;51.046;13.778;2022-10-31T02:18:19;70108.41;;;10.72;100.00
23131;BME280;11734;51.046;13.778;2022-10-31T02:21:01;70081.72;;;10.70;100.00
23131;BME280;11734;51.046;13.778;2022-10-31T02:24:17;70089.34;;;10.67;100.00
23131;BME280;11734;51.046;13.778;2022-10-31T02:27:21;70096.13;;;10.66;100.00
23131;BME280;11734;51.046;13.778;2022-10-31T02:32:59;70095.81;;;10.64;100.00
23131;BME280;11734;51.046;13.778;2022-10-31T02:41:33;70093.47;;;10.66;100.00
23131;BME280;11734;51.046;13.778;2022-10-31T02:44:27;70141.13;;;10.44;100.00
23131;BME280;11734;51.046;13.778;2022-10-31T02:47:08;70094.41;;;10.51;100.00
23131;BME280;11734;51.046;13.778;2022-10-31T02:52:28;70108.53;;;10.45;100.00
23131;BME280;11734;51.046;13.778;2022-10-31T02:58:09;70099.16;;;10.46;100.00
23131;BME280;11734;51.046;13.778;2022-10-31T03:01:02;70042.53;;;10.45;100.00
23131;BME280;11734;51.046;13.778;2022-10-31T03:06:30;70046.38;;;10.42;100.00
23131;BME280;11734;51.046;13.778;2022-10-31T03:11:36;70076.91;;;10.31;100.00
23131;BME280;11734;51.046;13.778;2022-10-31T03:14:48;70044.63;;;10.35;100.00
23131;BME280;11734;51.046;13.778;2022-10-31T03:17:07;70057.56;;;10.33;100.00
23131;BME280;11734;51.046;13.778;2022-10-31T03:19:41;70038.81;;;10.30;100.00
23131;BME280;11734;51.046;13.778;2022-10-31T03:22:16;70084.56;;;10.29;100.00
23131;BME280;11734;51.046;13.778;2022-10-31T03:24:45;70029.72;;;10.25;100.00
23131;BME280;11734;51.046;13.778;2022-10-31T03:27:16;70052.94;;;10.20;100.00
23131;BME280;11734;51.046;13.778;2022-10-31T03:29:45;70050.00;;;10.17;100.00
23131;BME280;11734;51.046;13.778;2022-10-31T03:32:23;70037.09;;;10.15;100.00
23131;BME280;11734;51.046;13.778;2022-10-31T03:34:54;70020.66;;;10.19;100.00
23131;BME280;11734;51.046;13.778;2022-10-31T03:37:25;70038.28;;;10.16;100.00
23131;BME280;11734;51.046;13.778;2022-10-31T03:39:55;70011.31;;;10.16;100.00
23131;BME280;11734;51.046;13.778;2022-10-31T03:42:29;70050.00;;;10.13;100.00
23131;BME280;11734;51.046;13.778;2022-10-31T03:47:27;70052.41;;;10.06;100.00
23131;BME280;11734;51.046;13.778;2022-10-31T03:49:56;70030.09;;;10.05;100.00
23131;BME280;11734;51.046;13.778;2022-10-31T03:52:54;70007.88;;;9.94;100.00
23131;BME280;11734;51.046;13.778;2022-10-31T03:55:40;70014.31;;;9.95;100.00
23131;BME280;11734;51.046;13.778;2022-10-31T03:58:15;70034.84;;;9.95;100.00
23131;BME280;11734;51.046;13.778;2022-10-31T04:00:47;70022.53;;;9.93;100.00
23131;BME280;11734;51.046;13.778;2022-10-31T04:03:25;70026.03;;;9.97;100.00
23131;BME280;11734;51.046;13.778;2022-10-31T04:05:59;69999.66;;;9.97;100.00
23131;BME280;11734;51.046;13.778;2022-10-31T04:08:31;70028.41;;;9.94;100.00
23131;BME280;11734;51.046;13.778;2022-10-31T04:11:01;70007.03;;;9.91;100.00
23131;BME280;11734;51.046;13.778;2022-10-31T04:13:34;69999.72;;;9.87;100.00
23131;BME280;11734;51.046;13.778;2022-10-31T04:16:10;69954.00;;;9.84;100.00
23131;BME280;11734;51.046;13.778;2022-10-31T04:18:43;69992.41;;;9.83;100.00
23131;BME280;11734;51.046;13.778;2022-10-31T04:21:11;69996.81;;;9.80;100.00
23131;BME280;11734;51.046;13.778;2022-10-31T04:23:38;69984.78;;;9.81;100.00
23131;BME280;11734;51.046;13.778;2022-10-31T04:26:21;70000.03;;;9.76;100.00
23131;BME280;11734;51.046;13.778;2022-10-31T04:28:48;69966.66;;;9.75;100.00
23131;BME280;11734;51.046;13.778;2022-10-31T04:31:16;69969.59;;;9.73;100.00
23131;BME280;11734;51.046;13.778;2022-10-31T04:33:45;69956.13;;;9.70;100.00
23131;BME280;11734;51.046;13.778;2022-10-31T04:36:13;69987.16;;;9.74;100.00
23131;BME280;11734;51.046;13.778;2022-10-31T04:38:41;69976.63;;;9.74;100.00
23131;BME280;11734;51.046;13.778;2022-10-31T04:41:21;69986.88;;;9.72;100.00
23131;BME280;11734;51.046;13.778;2022-10-31T04:43:57;69967.28;;;9.66;100.00
23131;BME280;11734;51.046;13.778;2022-10-31T04:46:27;69982.25;;;9.63;100.00
23131;BME280;11734;51.046;13.778;2022-10-31T04:48:56;69962.88;;;9.65;100.00
23131;BME280;11734;51.046;13.778;2022-10-31T04:51:24;69955.00;;;9.60;100.00
23131;BME280;11734;51.046;13.778;2022-10-31T04:53:52;69961.47;;;9.57;100.00
23131;BME280;11734;51.046;13.778;2022-10-31T04:56:38;69940.97;;;9.53;100.00
23131;BME280;11734;51.046;13.778;2022-10-31T04:59:11;69923.09;;;9.53;100.00
23131;BME280;11734;51.046;13.778;2022-10-31T05:01:51;69955.94;;;9.50;100.00
23131;BME280;11734;51.046;13.778;2022-10-31T05:04:33;69966.47;;;9.54;100.00
23131;BME280;11734;51.046;13.778;2022-10-31T05:07:00;69945.97;;;9.50;100.00
23131;BME280;11734;51.046;13.778;2022-10-31T05:09:28;69964.13;;;9.52;100.00
23131;BME280;11734;51.046;13.778;2022-10-31T05:11:55;69930.47;;;9.48;100.00
23131;BME280;11734;51.046;13.778;2022-10-31T05:14:42;69937.19;;;9.47;100.00
23131;BME280;11734;51.046;13.778;2022-10-31T05:17:33;69939.53;;;9.44;100.00
23131;BME280;11734;51.046;13.778;2022-10-31T05:20:26;69928.47;;;9.39;100.00
23131;BME280;11734;51.046;13.778;2022-10-31T05:23:11;69946.06;;;9.32;100.00
23131;BME280;11734;51.046;13.778;2022-10-31T05:25:41;69898.31;;;9.34;100.00
23131;BME280;11734;51.046;13.778;2022-10-31T05:28:09;69937.84;;;9.34;100.00
23131;BME280;11734;51.046;13.778;2022-10-31T05:30:37;69927.31;;;9.34;100.00
23131;BME280;11734;51.046;13.778;2022-10-31T05:33:07;69935.22;;;9.29;100.00
23131;BME280;11734;51.046;13.778;2022-10-31T05:35:54;69942.56;;;9.29;100.00
23131;BME280;11734;51.046;13.778;2022-10-31T05:38:38;69900.97;;;9.25;100.00
23131;BME280;11734;51.046;13.778;2022-10-31T05:41:16;69907.44;;;9.21;100.00
23131;BME280;11734;51.046;13.778;2022-10-31T05:43:46;69905.41;;;9.22;100.00
23131;BME280;11734;51.046;13.778;2022-10-31T05:46:15;69919.75;;;9.23;100.00
23131;BME280;11734;51.046;13.778;2022-10-31T05:49:06;69894.28;;;9.17;100.00
23131;BME280;11734;51.046;13.778;2022-10-31T05:51:59;69882.28;;;9.18;100.00
23131;BME280;11734;51.046;13.778;2022-10-31T05:54:36;69922.13;;;9.16;100.00
23131;BME280;11734;51.046;13.778;2022-10-31T05:57:03;69923.28;;;9.17;100.00
23131;BME280;11734;51.046;13.778;2022-10-31T05:59:30;69922.97;;;9.19;100.00
23131;BME280;11734;51.046;13.778;2022-10-31T06:01:58;69899.56;;;9.17;100.00
23131;BME280;11734;51.046;13.778;2022-10-31T06:04:45;69916.28;;;9.15;100.00
23131;BME280;11734;51.046;13.778;2022-10-31T06:07:13;69886.38;;;9.17;100.00
23131;BME280;11734;51.046;13.778;2022-10-31T06:09:40;69911.28;;;9.18;100.00
23131;BME280;11734;51.046;13.778;2022-10-31T06:12:08;69924.44;;;9.18;100.00
23131;BME280;11734;51.046;13.778;2022-10-31T06:14:54;69903.34;;;9.22;100.00
23131;BME280;11734;51.046;13.778;2022-10-31T06:17:21;69908.94;;;9.20;100.00
23131;BME280;11734;51.046;13.778;2022-10-31T06:19:48;69941.56;;;9.48;100.00
23131;BME280;11734;51.046;13.778;2022-10-31T06:22:24;70023.19;;;9.80;100.00
23131;BME280;11734;51.046;13.778;2022-10-31T06:24:52;70065.88;;;10.04;100.00
23131;BME280;11734;51.046;13.778;2022-10-31T06:27:28;70070.00;;;10.07;100.00
23131;BME280;11734;51.046;13.778;2022-10-31T06:29:57;70031.28;;;10.06;100.00
23131;BME280;11734;51.046;13.778;2022-10-31T06:32:32;70056.50;;;10.05;100.00
23131;BME280;11734;51.046;13.778;2022-10-31T06:34:59;70015.44;;;10.06;100.00
23131;BME280;11734;51.046;13.778;2022-10-31T06:37:27;70009.03;;;9.95;100.00
23131;BME280;11734;51.046;13.778;2022-10-31T06:40:03;70009.38;;;9.89;100.00
23131;BME280;11734;51.046;13.778;2022-10-31T06:42:40;69954.06;;;9.75;100.00
23131;BME280;11734;51.046;13.778;2022-10-31T06:45:09;69971.09;;;9.67;100.00
23131;BME280;11734;51.046;13.778;2022-10-31T06:47:56;69979.81;;;9.79;100.00
23131;BME280;11734;51.046;13.778;2022-10-31T06:51:02;69976.25;;;9.90;100.00
23131;BME280;11734;51.046;13.778;2022-10-31T06:53:31;70013.75;;;9.95;100.00
23131;BME280;11734;51.046;13.778;2022-10-31T06:55:59;70006.09;;;10.02;100.00
23131;BME280;11734;51.046;13.778;2022-10-31T06:58:27;70028.91;;;10.13;100.00
23131;BME280;11734;51.046;13.778;2022-10-31T07:01:00;70010.41;;;10.17;100.00
23131;BME280;11734;51.046;13.778;2022-10-31T07:03:27;70033.59;;;10.12;100.00
23131;BME280;11734;51.046;13.778;2022-10-31T07:05:56;70028.00;;;10.19;100.00
23131;BME280;11734;51.046;13.778;2022-10-31T07:08:25;70040.00;;;10.27;100.00
23131;BME280;11734;51.046;13.778;2022-10-31T07:10:55;70037.59;;;10.34;100.00
23131;BME280;11734;51.046;13.778;2022-10-31T07:13:27;70036.75;;;10.31;100.00
23131;BME280;11734;51.046;13.778;2022-10-31T07:16:06;70056.97;;;10.32;100.00
23131;BME280;11734;51.046;13.778;2022-10-31T07:18:35;70018.28;;;10.26;100.00
23131;BME280;11734;51.046;13.778;2022-10-31T07:21:03;70015.34;;;10.24;100.00
23131;BME280;11734;51.046;13.778;2022-10-31T07:23:31;70021.56;;;10.18;100.00
23131;BME280;11734;51.046;13.778;2022-10-31T07:26:19;69997.81;;;10.18;100.00
23131;BME280;11734;51.046;13.778;2022-10-31T07:28:47;70021.25;;;10.20;100.00
23131;BME280;11734;51.046;13.778;2022-10-31T07:31:18;70018.00;;;10.24;100.00
23131;BME280;11734;51.046;13.778;2022-10-31T07:33:45;70038.50;;;10.28;100.00
23131;BME280;11734;51.046;13.778;2022-10-31T07:36:28;70037.91;;;10.32;100.00
23131;BME280;11734;51.046;13.778;2022-10-31T07:39:01;70009.44;;;10.32;100.00
23131;BME280;11734;51.046;13.778;2022-10-31T07:41:31;70025.84;;;10.37;100.00
23131;BME280;11734;51.046;13.778;2022-10-31T07:43:58;70063.66;;;10.40;100.00
23131;BME280;11734;51.046;13.778;2022-10-31T07:46:46;70038.09;;;10.48;100.00
23131;BME280;11734;51.046;13.778;2022-10-31T07:49:22;70053.03;;;10.54;100.00
23131;BME280;11734;51.046;13.778;2022-10-31T07:52:10;70071.47;;;10.63;100.00
23131;BME280;11734;51.046;13.778;2022-10-31T07:54:56;70089.63;;;10.70;100.00
23131;BME280;11734;51.046;13.778;2022-10-31T07:57:24;70088.69;;;10.76;100.00
23131;BME280;11734;51.046;13.778;2022-10-31T07:59:53;70109.22;;;10.80;100.00
23131;BME280;11734;51.046;13.778;2022-10-31T08:02:20;70107.75;;;10.85;100.00
23131;BME280;11734;51.046;13.778;2022-10-31T08:04:47;70134.69;;;10.95;100.00
23131;BME280;11734;51.046;13.778;2022-10-31T08:07:44;70129.38;;;11.00;100.00
23131;BME280;11734;51.046;13.778;2022-10-31T08:10:17;70135.22;;;11.05;100.00
23131;BME280;11734;51.046;13.778;2022-10-31T08:12:45;70138.13;;;11.12;100.00
23131;BME280;11734;51.046;13.778;2022-10-31T08:15:13;70126.31;;;11.20;100.00
23131;BME280;11734;51.046;13.778;2022-10-31T08:17:41;70162.09;;;11.28;100.00
23131;BME280;11734;51.046;13.778;2022-10-31T08:20:10;70169.06;;;11.43;100.00
23131;BME280;11734;51.046;13.778;2022-10-31T08:23:02;70213.69;;;11.50;100.00
23131;BME280;11734;51.046;13.778;2022-10-31T08:25:35;70210.97;;;11.59;100.00
23131;BME280;11734;51.046;13.778;2022-10-31T08:28:06;70216.81;;;11.68;100.00
23131;BME280;11734;51.046;13.778;2022-10-31T08:30:36;70269.41;;;11.75;100.00
23131;BME280;11734;51.046;13.778;2022-10-31T08:33:24;70257.56;;;11.88;100.00
23131;BME280;11734;51.046;13.778;2022-10-31T08:36:15;70286.06;;;11.96;100.00
23131;BME280;11734;51.046;13.778;2022-10-31T08:38:58;70272.19;;;12.05;100.00
23131;BME280;11734;51.046;13.778;2022-10-31T08:41:29;70274.44;;;12.16;100.00
23131;BME280;11734;51.046;13.778;2022-10-31T08:43:59;70321.44;;;12.29;100.00
23131;BME280;11734;51.046;13.778;2022-10-31T08:46:26;70305.19;;;12.40;100.00
23131;BME280;11734;51.046;13.778;2022-10-31T08:48:53;70321.84;;;12.52;100.00
23131;BME280;11734;51.046;13.778;2022-10-31T08:51:22;70365.38;;;12.62;100.00
23131;BME280;11734;51.046;13.778;2022-10-31T08:53:53;70336.78;;;12.67;100.00
23131;BME280;11734;51.046;13.778;2022-10-31T08:56:54;70382.31;;;12.82;100.00
23131;BME280;11734;51.046;13.778;2022-10-31T08:59:41;70386.13;;;12.87;100.00
23131;BME280;11734;51.046;13.778;2022-10-31T09:02:31;70414.94;;;12.94;100.00
23131;BME280;11734;51.046;13.778;2022-10-31T09:05:00;70393.34;;;13.05;100.00
23131;BME280;11734;51.046;13.778;2022-10-31T09:07:29;70432.47;;;13.18;100.00
23131;BME280;11734;51.046;13.778;2022-10-31T09:09:58;70410.84;;;13.34;100.00
23131;BME280;11734;51.046;13.778;2022-10-31T09:12:25;70482.13;;;13.40;100.00
23131;BME280;11734;51.046;13.778;2022-10-31T09:15:09;70435.47;;;13.50;100.00
23131;BME280;11734;51.046;13.778;2022-10-31T09:17:54;70529.78;;;13.58;100.00
23131;BME280;11734;51.046;13.778;2022-10-31T09:20:34;70490.44;;;13.73;100.00
23131;BME280;11734;51.046;13.778;2022-10-31T09:23:11;70526.63;;;13.83;100.00
23131;BME280;11734;51.046;13.778;2022-10-31T09:25:39;70537.44;;;13.99;100.00
23131;BME280;11734;51.046;13.778;2022-10-31T09:28:33;70578.94;;;14.14;100.00
23131;BME280;11734;51.046;13.778;2022-10-31T09:31:06;70576.16;;;14.28;100.00
23131;BME280;11734;51.046;13.778;2022-10-31T09:33:54;70577.28;;;14.38;100.00
23131;BME280;11734;51.046;13.778;2022-10-31T09:36:37;70651.63;;;14.52;100.00
23131;BME280;11734;51.046;13.778;2022-10-31T09:39:19;70618.44;;;14.65;100.00
23131;BME280;11734;51.046;13.778;2022-10-31T09:48:20;70753.81;;;15.35;100.00
23131;BME280;11734;51.046;13.778;2022-10-31T09:51:23;70824.16;;;15.84;100.00
23131;BME280;11734;51.046;13.778;2022-10-31T09:54:16;70939.19;;;16.76;100.00
23131;BME280;11734;51.046;13.778;2022-10-31T09:56:44;71121.66;;;18.08;100.00
23131;BME280;11734;51.046;13.778;2022-10-31T09:59:28;71353.16;;;19.49;97.00
23131;BME280;11734;51.046;13.778;2022-10-31T10:02:01;71580.13;;;20.83;89.12
23131;BME280;11734;51.046;13.778;2022-10-31T10:04:41;71785.31;;;22.01;80.81
23131;BME280;11734;51.046;13.778;2022-10-31T10:07:32;71875.69;;;22.55;63.59
23131;BME280;11734;51.046;13.778;2022-10-31T10:10:49;72097.41;;;23.66;58.61
23131;BME280;11734;51.046;13.778;2022-10-31T10:16:42;72355.25;;;25.11;51.76
23131;BME280;11734;51.046;13.778;2022-10-31T10:19:27;72506.63;;;25.85;51.15
23131;BME280;11734;51.046;13.778;2022-10-31T10:24:48;72524.06;;;25.86;47.95
23131;BME280;11734;51.046;13.778;2022-10-31T10:30:20;72499.75;;;25.81;48.78
23131;BME280;11734;51.046;13.778;2022-10-31T10:32:58;72445.28;;;25.83;48.60
23131;BME280;11734;51.046;13.778;2022-10-31T10:35:31;72611.97;;;26.46;47.40
23131;BME280;11734;51.046;13.778;2022-10-31T10:40:37;72899.34;;;27.93;45.05
23131;BME280;11734;51.046;13.778;2022-10-31T10:49:18;73284.16;;;29.52;39.48
23131;BME280;11734;51.046;13.778;2022-10-31T10:52:19;73335.97;;;29.86;39.08
23131;BME280;11734;51.046;13.778;2022-10-31T10:58:03;73411.13;;;30.15;37.91
23131;BME280;11734;51.046;13.778;2022-10-31T11:00:40;73550.97;;;30.75;36.72
23131;BME280;11734;51.046;13.778;2022-10-31T11:03:09;73680.47;;;31.20;36.83
23131;BME280;11734;51.046;13.778;2022-10-31T11:05:55;73748.44;;;31.65;35.05
23131;BME280;11734;51.046;13.778;2022-10-31T11:08:30;73837.50;;;31.99;34.12
23131;BME280;11734;51.046;13.778;2022-10-31T11:11:11;73842.72;;;31.92;33.18
23131;BME280;11734;51.046;13.778;2022-10-31T11:13:42;73822.75;;;31.84;33.19
23131;BME280;11734;51.046;13.778;2022-10-31T11:16:14;73687.69;;;31.30;33.94
23131;BME280;11734;51.046;13.778;2022-10-31T11:18:44;73667.00;;;31.36;34.28
23131;BME280;11734;51.046;13.778;2022-10-31T11:21:28;73810.00;;;31.78;33.92
23131;BME280;11734;51.046;13.778;2022-10-31T11:24:13;73889.72;;;32.10;34.00
23131;BME280;11734;51.046;13.778;2022-10-31T11:26:43;73896.06;;;32.13;32.87
23131;BME280;11734;51.046;13.778;2022-10-31T11:29:16;73876.09;;;31.97;33.15
23131;BME280;11734;51.046;13.778;2022-10-31T11:31:45;73927.31;;;32.23;33.33
23131;BME280;11734;51.046;13.778;2022-10-31T11:36:47;73621.47;;;30.96;34.24
23131;BME280;11734;51.046;13.778;2022-10-31T11:39:22;73342.69;;;29.78;36.04
23131;BME280;11734;51.046;13.778;2022-10-31T11:41:52;73273.56;;;29.55;36.49
23131;BME280;11734;51.046;13.778;2022-10-31T11:44:23;73263.22;;;29.60;36.96
23131;BME280;11734;51.046;13.778;2022-10-31T11:46:56;73381.38;;;29.83;37.44
23131;BME280;11734;51.046;13.778;2022-10-31T11:52:16;73453.56;;;30.49;35.59
23131;BME280;11734;51.046;13.778;2022-10-31T11:54:52;73484.81;;;30.50;36.64
23131;BME280;11734;51.046;13.778;2022-10-31T11:59:59;73460.59;;;30.38;35.96
23131;BME280;11734;51.046;13.778;2022-10-31T12:02:47;73322.00;;;29.88;36.44
23131;BME280;11734;51.046;13.778;2022-10-31T12:07:48;73279.47;;;29.69;38.44
23131;BME280;11734;51.046;13.778;2022-10-31T12:10:17;73383.03;;;30.03;37.49
23131;BME280;11734;51.046;13.778;2022-10-31T12:12:54;73460.44;;;30.22;37.15
23131;BME280;11734;51.046;13.778;2022-10-31T12:21:00;72986.25;;;28.32;42.36
23131;BME280;11734;51.046;13.778;2022-10-31T12:27:04;72344.06;;;25.43;48.50
23131;BME280;11734;51.046;13.778;2022-10-31T12:32:29;72189.56;;;24.44;52.82
23131;BME280;11734;51.046;13.778;2022-10-31T12:38:28;72030.13;;;23.47;58.37
23131;BME280;11734;51.046;13.778;2022-10-31T12:41:21;71937.97;;;23.08;60.14
23131;BME280;11734;51.046;13.778;2022-10-31T12:43:58;71932.81;;;22.90;60.22
23131;BME280;11734;51.046;13.778;2022-10-31T12:58:31;71763.94;;;21.87;65.53
23131;BME280;11734;51.046;13.778;2022-10-31T13:01:20;71719.91;;;21.68;65.57
23131;BME280;11734;51.046;13.778;2022-10-31T13:06:38;71703.41;;;21.45;67.61
23131;BME280;11734;51.046;13.778;2022-10-31T13:09:16;71681.34;;;21.40;68.59
23131;BME280;11734;51.046;13.778;2022-10-31T13:11:58;71679.84;;;21.41;68.65
23131;BME280;11734;51.046;13.778;2022-10-31T13:17:02;71664.69;;;21.35;69.62
23131;BME280;11734;51.046;13.778;2022-10-31T13:19:38;71685.91;;;21.32;70.22
23131;BME280;11734;51.046;13.778;2022-10-31T13:22:29;71660.59;;;21.27;69.11
23131;BME280;11734;51.046;13.778;2022-10-31T13:30:18;71646.06;;;21.17;68.31
23131;BME280;11734;51.046;13.778;2022-10-31T13:33:02;71664.63;;;21.09;66.98
23131;BME280;11734;51.046;13.778;2022-10-31T13:35:44;71624.91;;;21.10;67.70
23131;BME280;11734;51.046;13.778;2022-10-31T13:41:54;71626.09;;;21.11;67.55
23131;BME280;11734;51.046;13.778;2022-10-31T13:44:30;71601.94;;;21.06;68.37
23131;BME280;11734;51.046;13.778;2022-10-31T13:47:20;71613.59;;;21.09;66.33
23131;BME280;11734;51.046;13.778;2022-10-31T13:49:47;71628.16;;;21.15;67.53
23131;BME280;11734;51.046;13.778;2022-10-31T13:52:23;71625.47;;;21.15;68.09
23131;BME280;11734;51.046;13.778;2022-10-31T13:54:54;71615.63;;;21.13;68.05
23131;BME280;11734;51.046;13.778;2022-10-31T14:00:04;71588.31;;;20.99;69.41
23131;BME280;11734;51.046;13.778;2022-10-31T14:02:58;71623.88;;;20.95;71.07
23131;BME280;11734;51.046;13.778;2022-10-31T14:05:35;71589.66;;;20.82;69.43
23131;BME280;11734;51.046;13.778;2022-10-31T14:08:04;71578.63;;;20.84;69.27
23131;BME280;11734;51.046;13.778;2022-10-31T14:10:36;71575.59;;;20.86;68.94
23131;BME280;11734;51.046;13.778;2022-10-31T14:13:08;71570.81;;;20.87;69.61
23131;BME280;11734;51.046;13.778;2022-10-31T14:15:51;71538.63;;;20.82;70.65
23131;BME280;11734;51.046;13.778;2022-10-31T14:18:33;71557.22;;;20.75;72.24
23131;BME280;11734;51.046;13.778;2022-10-31T14:21:12;71547.75;;;20.67;72.59
23131;BME280;11734;51.046;13.778;2022-10-31T14:23:40;71560.88;;;20.69;71.87
23131;BME280;11734;51.046;13.778;2022-10-31T14:29:21;71473.38;;;20.49;73.04
23131;BME280;11734;51.046;13.778;2022-10-31T14:32:03;71467.53;;;20.40;73.47
23131;BME280;11734;51.046;13.778;2022-10-31T14:34:53;71467.06;;;20.26;74.88
23131;BME280;11734;51.046;13.778;2022-10-31T14:43:12;71380.47;;;19.84;78.25
23131;BME280;11734;51.046;13.778;2022-10-31T14:51:21;71350.47;;;19.49;81.04
23131;BME280;11734;51.046;13.778;2022-10-31T14:56:27;71265.56;;;19.26;83.46
23131;BME280;11734;51.046;13.778;2022-10-31T14:58:59;71276.69;;;19.15;84.22
23131;BME280;11734;51.046;13.778;2022-10-31T15:01:30;71269.34;;;19.07;84.72
23131;BME280;11734;51.046;13.778;2022-10-31T15:04:18;71273.03;;;18.96;85.60
23131;BME280;11734;51.046;13.778;2022-10-31T15:07:09;71250.25;;;18.83;86.56
23131;BME280;11734;51.046;13.778;2022-10-31T15:09:38;71260.13;;;18.76;87.42
23131;BME280;11734;51.046;13.778;2022-10-31T15:12:37;71103.63;;;17.99;88.20
23131;BME280;11734;51.046;13.778;2022-10-31T15:17:44;71181.31;;;18.45;91.14
23131;BME280;11734;51.046;13.778;2022-10-31T15:20:27;71138.06;;;18.31;93.01
23131;BME280;11734;51.046;13.778;2022-10-31T15:22:58;71139.97;;;18.19;94.49
23131;BME280;11734;51.046;13.778;2022-10-31T15:25:30;71102.94;;;18.08;96.43
23131;BME280;11734;51.046;13.778;2022-10-31T15:27:59;71081.38;;;17.96;99.07
23131;BME280;11734;51.046;13.778;2022-10-31T15:30:29;71091.56;;;17.86;100.00
23131;BME280;11734;51.046;13.778;2022-10-31T15:32:56;71086.38;;;17.73;100.00
23131;BME280;11734;51.046;13.778;2022-10-31T15:35:28;71029.47;;;17.61;100.00
23131;BME280;11734;51.046;13.778;2022-10-31T15:37:57;71001.13;;;17.46;100.00
23131;BME280;11734;51.046;13.778;2022-10-31T15:40:26;71023.50;;;17.30;100.00